createdAt,value
2023-04-22T00:01:05.360Z,82.50
2023-04-22T00:03:34.214Z,82.60
2023-04-22T00:06:02.887Z,82.60
2023-04-22T00:08:31.190Z,82.50
2023-04-22T00:10:59.988Z,82.60
2023-04-22T00:13:29.805Z,82.60
2023-04-22T00:15:58.207Z,83.90
2023-04-22T00:18:26.580Z,82.60
2023-04-22T00:20:54.944Z,82.60
2023-04-22T00:23:23.329Z,82.60
2023-04-22T00:25:52.263Z,82.50
2023-04-22T00:28:20.586Z,82.60
2023-04-22T00:30:50.333Z,82.50
2023-04-22T00:33:18.699Z,82.60
2023-04-22T00:35:47.799Z,82.60
2023-04-22T00:38:16.341Z,82.60
2023-04-22T00:40:44.695Z,82.60
2023-04-22T00:43:14.919Z,82.60
2023-04-22T00:45:44.337Z,82.50
2023-04-22T00:48:14.761Z,82.60
2023-04-22T00:50:43.304Z,83.10
2023-04-22T00:53:11.789Z,82.50
2023-04-22T00:55:40.112Z,82.60
2023-04-22T00:58:09.233Z,82.60
2023-04-22T01:00:37.783Z,82.70
2023-04-22T01:03:07.889Z,82.60
2023-04-22T01:05:38.090Z,82.70
2023-04-22T01:08:09.097Z,84.00
2023-04-22T01:10:37.820Z,82.70
2023-04-22T01:13:06.493Z,82.50
2023-04-22T01:15:35.014Z,82.70
2023-04-22T01:18:03.675Z,82.60
2023-04-22T01:20:32.122Z,82.60
2023-04-22T01:23:05.245Z,82.60
2023-04-22T01:25:35.293Z,82.70
2023-04-22T01:28:04.268Z,82.80
2023-04-22T01:30:33.282Z,82.80
2023-04-22T01:33:02.107Z,82.90
2023-04-22T01:35:36.761Z,83.00
2023-04-22T01:38:05.244Z,83.10
2023-04-22T01:40:36.276Z,83.00
2023-04-22T01:43:04.762Z,83.00
2023-04-22T01:45:34.891Z,83.00
2023-04-22T01:48:03.453Z,83.00
2023-04-22T01:50:31.833Z,83.00
2023-04-22T01:53:00.803Z,83.10
2023-04-22T01:55:29.526Z,83.00
2023-04-22T01:57:59.289Z,83.10
2023-04-22T02:00:27.627Z,83.00
2023-04-22T02:02:56.109Z,82.90
2023-04-22T02:05:25.665Z,83.00
2023-04-22T02:07:54.481Z,83.00
2023-04-22T02:10:23.523Z,83.00
2023-04-22T02:12:51.925Z,83.10
2023-04-22T02:15:22.896Z,83.10
2023-04-22T02:17:55.458Z,83.10
2023-04-22T02:20:23.840Z,83.10
2023-04-22T02:22:52.583Z,83.10
2023-04-22T02:25:21.682Z,83.10
2023-04-22T02:27:51.669Z,83.30
2023-04-22T02:30:21.891Z,83.40
2023-04-22T02:32:50.263Z,83.40
2023-04-22T02:35:18.898Z,83.50
2023-04-22T02:37:47.348Z,83.40
2023-04-22T02:40:16.204Z,83.40
2023-04-22T02:42:44.500Z,83.40
2023-04-22T02:45:13.180Z,83.30
2023-04-22T02:47:43.268Z,83.40
2023-04-22T02:50:12.366Z,83.40
2023-04-22T02:52:40.868Z,83.40
2023-04-22T02:55:10.733Z,83.40
2023-04-22T02:57:39.295Z,83.50
2023-04-22T03:00:10.157Z,83.40
2023-04-22T03:02:39.262Z,83.50
2023-04-22T03:05:20.467Z,83.60
2023-04-22T03:07:49.428Z,83.60
2023-04-22T03:10:18.590Z,83.60
2023-04-22T03:12:47.304Z,83.70
2023-04-22T03:15:16.517Z,83.80
2023-04-22T03:17:46.481Z,83.70
2023-04-22T03:20:16.716Z,83.80
2023-04-22T03:22:46.420Z,84.00
2023-04-22T03:25:16.289Z,84.00
2023-04-22T03:27:50.926Z,84.10
2023-04-22T03:30:19.828Z,84.00
2023-04-22T03:32:49.074Z,84.00
2023-04-22T03:35:22.066Z,84.10
2023-04-22T03:37:53.568Z,84.20
2023-04-22T03:40:27.942Z,84.20
2023-04-22T03:42:56.837Z,84.20
2023-04-22T03:45:25.931Z,84.00
2023-04-22T03:48:11.961Z,83.90
2023-04-22T03:50:45.935Z,83.90
2023-04-22T03:53:16.356Z,83.90
2023-04-22T03:55:45.804Z,83.80
2023-04-22T03:58:15.719Z,83.80
2023-04-22T04:00:44.395Z,83.80
2023-04-22T04:03:17.863Z,83.90
2023-04-22T04:05:49.783Z,83.90
2023-04-22T04:08:19.617Z,83.90
2023-04-22T04:10:47.954Z,83.80
2023-04-22T04:13:17.321Z,85.10
2023-04-22T04:16:00.171Z,83.80
2023-04-22T04:18:30.690Z,84.00
2023-04-22T04:20:59.682Z,83.80
2023-04-22T04:23:32.198Z,83.80
2023-04-22T04:26:02.981Z,84.00
2023-04-22T04:28:32.757Z,83.80
2023-04-22T04:31:02.770Z,83.90
2023-04-22T04:33:32.534Z,84.00
2023-04-22T04:36:01.704Z,83.90
2023-04-22T04:38:35.324Z,83.90
2023-04-22T04:41:03.971Z,83.90
2023-04-22T04:43:33.452Z,83.90
2023-04-22T04:46:12.645Z,83.90
2023-04-22T04:48:42.414Z,84.00
2023-04-22T04:51:11.697Z,84.10
2023-04-22T04:53:50.602Z,84.10
2023-04-22T04:56:19.183Z,84.10
2023-04-22T04:58:48.265Z,84.20
2023-04-22T05:01:23.257Z,84.40
2023-04-22T05:03:53.168Z,84.40
2023-04-22T05:06:22.537Z,84.60
2023-04-22T05:08:57.636Z,84.70
2023-04-22T05:11:25.939Z,84.70
2023-04-22T05:13:56.038Z,84.70
2023-04-22T05:16:31.052Z,84.60
2023-04-22T05:19:00.064Z,84.80
2023-04-22T05:21:28.377Z,84.90
2023-04-22T05:23:58.508Z,84.80
2023-04-22T05:26:27.073Z,84.80
2023-04-22T05:28:55.616Z,84.80
2023-04-22T05:31:24.109Z,84.90
2023-04-22T05:33:53.254Z,85.10
2023-04-22T05:36:22.753Z,84.80
2023-04-22T05:38:51.146Z,85.90
2023-04-22T05:41:20.724Z,84.60
2023-04-22T05:43:49.383Z,84.70
2023-04-22T05:46:19.955Z,84.90
2023-04-22T05:48:49.231Z,85.30
2023-04-22T05:51:43.534Z,85.50
2023-04-22T05:54:14.526Z,85.70
2023-04-22T05:56:44.117Z,85.20
2023-04-22T05:59:12.532Z,85.40
2023-04-22T06:01:40.716Z,85.20
2023-04-22T06:04:11.874Z,85.80
2023-04-22T06:06:40.799Z,85.60
2023-04-22T06:09:09.350Z,85.40
2023-04-22T06:11:37.693Z,86.40
2023-04-22T06:14:07.530Z,86.80
2023-04-22T06:16:36.267Z,86.80
2023-04-22T06:19:06.369Z,86.40
2023-04-22T06:21:37.026Z,85.80
2023-04-22T06:24:06.190Z,86.10
2023-04-22T06:26:37.981Z,86.30
2023-04-22T06:29:07.892Z,86.30
2023-04-22T06:31:38.685Z,86.00
2023-04-22T06:34:07.279Z,86.20
2023-04-22T06:36:37.578Z,86.80
2023-04-22T06:39:07.506Z,86.80
2023-04-22T06:41:35.866Z,86.80
2023-04-22T06:44:13.337Z,87.00
2023-04-22T06:47:06.722Z,87.80
2023-04-22T06:49:45.047Z,88.00
2023-04-22T06:52:29.106Z,87.50
2023-04-22T06:55:00.007Z,86.90
2023-04-22T06:57:29.013Z,87.00
2023-04-22T06:59:58.594Z,86.40
2023-04-22T07:02:28.517Z,86.30
2023-04-22T07:04:56.826Z,85.90
2023-04-22T07:07:25.962Z,85.60
2023-04-22T07:09:54.490Z,85.50
2023-04-22T07:12:25.005Z,85.20
2023-04-22T07:14:54.907Z,85.20
2023-04-22T07:17:24.733Z,85.10
2023-04-22T07:19:53.971Z,85.00
2023-04-22T07:22:22.259Z,85.00
2023-04-22T07:24:50.795Z,84.90
2023-04-22T07:27:19.081Z,85.10
2023-04-22T07:29:47.490Z,84.80
2023-04-22T07:32:16.549Z,84.80
2023-04-22T07:34:49.164Z,84.70
2023-04-22T07:37:17.419Z,84.50
2023-04-22T07:39:45.757Z,84.60
2023-04-22T07:42:14.056Z,84.50
2023-04-22T07:44:42.378Z,84.50
2023-04-22T07:47:10.924Z,84.40
2023-04-22T07:49:39.424Z,84.20
2023-04-22T07:52:09.269Z,84.20
2023-04-22T07:54:37.666Z,84.00
2023-04-22T07:57:05.860Z,84.10
2023-04-22T07:59:34.161Z,84.10
2023-04-22T08:02:02.629Z,84.10
2023-04-22T08:04:31.160Z,84.10
2023-04-22T08:06:59.727Z,84.00
2023-04-22T08:09:30.525Z,83.70
2023-04-22T08:11:59.041Z,83.80
2023-04-22T08:14:27.231Z,83.90
2023-04-22T08:16:55.691Z,83.60
2023-04-22T08:19:23.975Z,83.60
2023-04-22T08:21:52.198Z,83.60
2023-04-22T08:24:20.922Z,83.50
2023-04-22T08:26:50.745Z,83.70
2023-04-22T08:29:19.371Z,83.70
2023-04-22T08:31:47.659Z,83.80
2023-04-22T08:34:15.998Z,83.80
2023-04-22T08:36:44.435Z,83.80
2023-04-22T08:39:12.881Z,83.60
2023-04-22T08:41:41.361Z,83.50
2023-04-22T08:44:11.458Z,83.30
2023-04-22T08:46:40.252Z,83.20
2023-04-22T08:49:08.531Z,83.30
2023-04-22T08:51:37.812Z,83.30
2023-04-22T08:54:06.793Z,83.40
2023-04-22T08:56:37.063Z,83.60
2023-04-22T08:59:05.621Z,82.80
2023-04-22T09:01:36.054Z,82.90
2023-04-22T09:04:05.388Z,82.70
2023-04-22T09:06:34.473Z,82.20
2023-04-22T09:09:03.069Z,82.10
2023-04-22T09:11:32.140Z,82.10
2023-04-22T09:14:00.556Z,81.40
2023-04-22T09:16:31.355Z,81.70
2023-04-22T09:19:01.662Z,82.00
2023-04-22T09:21:34.151Z,82.70
2023-04-22T09:24:02.974Z,82.70
2023-04-22T09:26:32.602Z,82.70
2023-04-22T09:29:01.268Z,83.00
2023-04-22T09:31:29.850Z,83.30
2023-04-22T09:34:00.840Z,83.30
2023-04-22T09:36:30.201Z,83.50
2023-04-22T09:39:00.105Z,83.50
2023-04-22T09:41:29.604Z,83.70
2023-04-22T09:43:58.860Z,83.80
2023-04-22T09:46:29.207Z,83.80
2023-04-22T09:48:58.727Z,84.00
2023-04-22T09:51:29.549Z,84.10
2023-04-22T09:54:04.273Z,83.90
2023-04-22T09:56:43.291Z,83.80
2023-04-22T09:59:12.125Z,84.00
2023-04-22T10:01:42.033Z,84.20
2023-04-22T10:04:11.211Z,84.00
2023-04-22T10:06:41.020Z,84.00
2023-04-22T10:09:09.719Z,84.20
2023-04-22T10:11:38.596Z,84.20
2023-04-22T10:14:06.848Z,84.30
2023-04-22T10:16:36.490Z,84.30
2023-04-22T10:19:07.221Z,84.20
2023-04-22T10:21:36.457Z,84.50
2023-04-22T10:24:06.976Z,84.40
2023-04-22T10:26:46.028Z,84.50
2023-04-22T10:29:17.058Z,84.50
2023-04-22T10:31:45.838Z,84.50
2023-04-22T10:34:15.706Z,84.60
2023-04-22T10:36:58.337Z,84.70
2023-04-22T10:39:29.514Z,84.50
2023-04-22T10:42:11.251Z,84.60
2023-04-22T10:44:51.304Z,84.60
2023-04-22T10:47:31.109Z,84.60
2023-04-22T10:50:20.753Z,84.40
2023-04-22T10:52:51.453Z,84.40
2023-04-22T10:55:21.411Z,84.50
2023-04-22T10:57:51.129Z,84.40
2023-04-22T11:03:18.694Z,84.50
2023-04-22T11:05:47.354Z,84.60
2023-04-22T11:08:20.595Z,84.50
2023-04-22T11:10:52.175Z,84.60
2023-04-22T11:13:21.936Z,84.50
2023-04-22T11:15:51.689Z,84.40
2023-04-22T11:18:21.893Z,84.60
2023-04-22T11:20:51.252Z,84.60
2023-04-22T11:23:22.989Z,84.60
2023-04-22T11:25:58.025Z,84.70
2023-04-22T11:28:26.501Z,90.40
2023-04-22T11:31:02.102Z,90.20
2023-04-22T11:33:30.418Z,88.80
2023-04-22T11:35:58.952Z,87.90
2023-04-22T11:38:27.432Z,87.90
2023-04-22T11:40:58.919Z,87.20
2023-04-22T11:43:27.419Z,87.00
2023-04-22T11:45:58.016Z,87.40
2023-04-22T11:48:26.457Z,87.70
2023-04-22T11:51:20.457Z,87.70
2023-04-22T11:53:52.104Z,87.60
2023-04-22T11:56:40.331Z,87.60
2023-04-22T11:59:28.601Z,87.60
2023-04-22T12:01:56.882Z,87.60
2023-04-22T12:04:25.152Z,87.60
2023-04-22T12:06:53.841Z,87.60
2023-04-22T12:09:26.542Z,87.60
2023-04-22T12:11:56.291Z,87.50
2023-04-22T12:14:32.916Z,87.60
2023-04-22T12:17:06.191Z,88.80
2023-04-22T12:19:34.926Z,87.50
2023-04-22T12:22:03.784Z,87.60
2023-04-22T12:24:32.430Z,87.50
2023-04-22T12:27:03.498Z,87.50
2023-04-22T12:29:32.998Z,87.50
2023-04-22T12:32:01.582Z,87.50
2023-04-22T12:34:29.906Z,87.50
2023-04-22T12:36:58.223Z,87.50
2023-04-22T12:39:26.503Z,87.50
2023-04-22T12:41:54.770Z,87.60
2023-04-22T12:44:25.243Z,87.60
2023-04-22T12:46:53.783Z,87.50
2023-04-22T12:49:22.393Z,87.50
2023-04-22T12:51:51.386Z,87.60
2023-04-22T12:54:21.642Z,87.50
2023-04-22T12:56:50.260Z,87.60
2023-04-22T12:59:19.014Z,87.60
2023-04-22T13:01:52.532Z,87.60
2023-04-22T13:04:21.520Z,87.50
2023-04-22T13:06:56.505Z,87.50
2023-04-22T13:09:26.321Z,87.60
2023-04-22T13:11:55.168Z,87.50
2023-04-22T13:14:23.499Z,87.50
2023-04-22T13:16:53.416Z,87.50
2023-04-22T13:19:21.791Z,88.40
2023-04-22T13:21:50.077Z,87.50
2023-04-22T13:24:18.369Z,87.50
2023-04-22T13:26:46.879Z,87.20
2023-04-22T13:29:15.553Z,87.10
2023-04-22T13:31:45.238Z,86.90
2023-04-22T13:34:15.412Z,86.70
2023-04-22T13:36:43.824Z,86.90
2023-04-22T13:39:12.453Z,87.00
2023-04-22T13:41:40.728Z,87.00
2023-04-22T13:44:12.480Z,87.10
2023-04-22T13:46:41.631Z,87.40
2023-04-22T13:49:10.234Z,87.20
2023-04-22T13:51:41.805Z,87.20
2023-04-22T13:54:10.121Z,87.10
2023-04-22T13:56:38.746Z,87.20
2023-04-22T13:59:07.229Z,87.40
2023-04-22T14:01:35.685Z,87.30
2023-04-22T14:04:04.769Z,87.30
2023-04-22T14:06:33.559Z,87.30
2023-04-22T14:09:05.145Z,87.30
2023-04-22T14:11:33.831Z,87.30
2023-04-22T14:14:02.081Z,87.30
2023-04-22T14:16:30.488Z,87.40
2023-04-22T14:18:59.725Z,87.20
2023-04-22T14:21:29.608Z,87.30
2023-04-22T14:23:59.464Z,87.10
2023-04-22T14:26:29.154Z,87.40
2023-04-22T14:28:57.444Z,87.10
2023-04-22T14:31:25.985Z,87.50
2023-04-22T14:33:54.980Z,87.30
2023-04-22T14:36:23.271Z,87.20
2023-04-22T14:38:51.541Z,87.00
2023-04-22T14:41:19.889Z,86.90
2023-04-22T14:43:49.644Z,87.20
2023-04-22T14:46:18.360Z,87.40
2023-04-22T14:48:47.077Z,87.00
2023-04-22T14:51:15.709Z,87.50
2023-04-22T14:53:44.083Z,87.10
2023-04-22T14:56:13.109Z,87.50
2023-04-22T14:58:41.357Z,87.30
2023-04-22T15:01:11.346Z,87.20
2023-04-22T15:03:40.182Z,87.40
2023-04-22T15:06:09.132Z,87.70
2023-04-22T15:08:37.394Z,87.70
2023-04-22T15:11:05.661Z,87.40
2023-04-22T15:13:34.257Z,87.40
2023-04-22T15:16:02.616Z,87.70
2023-04-22T15:18:32.678Z,87.80
2023-04-22T15:21:03.589Z,87.80
2023-04-22T15:23:32.228Z,87.50
2023-04-22T15:26:00.777Z,87.40
2023-04-22T15:28:29.071Z,87.70
2023-04-22T15:30:57.546Z,87.80
2023-04-22T15:33:26.058Z,87.70
2023-04-22T15:35:55.817Z,87.70
2023-04-22T15:38:24.725Z,87.80
2023-04-22T15:40:53.242Z,87.70
2023-04-22T15:43:21.471Z,87.80
2023-04-22T15:45:51.124Z,87.80
2023-04-22T15:48:19.496Z,89.10
2023-04-22T15:50:47.828Z,87.80
2023-04-22T15:53:17.735Z,87.80
2023-04-22T15:55:47.425Z,87.80
2023-04-22T15:58:17.021Z,87.80
2023-04-22T16:00:46.030Z,89.10
2023-04-22T16:03:14.703Z,87.80
2023-04-22T16:05:43.413Z,87.80
2023-04-22T16:08:13.460Z,87.80
2023-04-22T16:10:43.220Z,87.80
2023-04-22T16:13:12.079Z,87.80
2023-04-22T16:15:40.543Z,87.90
2023-04-22T16:18:09.448Z,88.00
2023-04-22T16:20:37.978Z,87.90
2023-04-22T16:23:06.688Z,88.00
2023-04-22T16:25:35.212Z,87.90
2023-04-22T16:28:04.949Z,87.90
2023-04-22T16:30:33.388Z,88.00
2023-04-22T16:33:02.017Z,88.00
2023-04-22T16:35:31.227Z,88.00
2023-04-22T16:37:59.638Z,88.00
2023-04-22T16:40:28.012Z,88.00
2023-04-22T16:43:00.521Z,88.00
2023-04-22T16:45:30.614Z,88.10
2023-04-22T16:47:59.068Z,88.60
2023-04-22T16:50:27.393Z,88.10
2023-04-22T16:52:55.897Z,88.60
2023-04-22T16:55:24.270Z,90.20
2023-04-22T16:57:53.379Z,90.50
2023-04-22T17:00:24.421Z,90.30
2023-04-22T18:04:40.519Z,89.30
2023-04-22T18:07:10.986Z,89.60
2023-04-22T18:09:40.419Z,89.40
2023-04-22T18:12:10.791Z,89.20
2023-04-22T18:14:39.734Z,89.40
2023-04-22T18:17:08.730Z,89.30
2023-04-22T18:19:38.023Z,89.50
2023-04-22T18:22:06.410Z,89.40
2023-04-22T18:24:36.642Z,89.00
2023-04-22T18:27:05.131Z,89.10
2023-04-22T18:29:33.708Z,88.90
2023-04-22T18:32:03.393Z,88.80
2023-04-22T18:34:32.103Z,88.40
2023-04-22T18:37:00.970Z,87.50
2023-04-22T18:39:29.577Z,88.60
2023-04-22T18:42:02.378Z,88.70
2023-04-22T18:44:30.897Z,88.40
2023-04-22T18:46:59.328Z,88.00
2023-04-22T18:49:28.144Z,88.10
2023-04-22T18:51:57.203Z,88.00
2023-04-22T18:54:28.607Z,88.10
2023-04-22T18:57:00.129Z,88.10
2023-04-22T18:59:28.466Z,88.10
2023-04-22T19:01:56.860Z,88.00
2023-04-22T19:04:26.226Z,88.10
2023-04-22T19:06:56.938Z,88.00
2023-04-22T19:09:25.367Z,88.00
2023-04-22T19:11:53.799Z,88.00
2023-04-22T19:14:23.650Z,88.10
2023-04-22T19:16:52.137Z,88.10
2023-04-22T19:19:20.872Z,88.10
2023-04-22T19:21:49.503Z,88.00
2023-04-22T19:24:21.856Z,88.10
2023-04-22T19:26:50.210Z,88.10
2023-04-22T19:29:18.536Z,88.10
2023-04-22T19:31:48.736Z,88.10
2023-04-22T19:34:17.199Z,88.20
2023-04-22T19:36:45.570Z,88.00
2023-04-22T19:39:15.575Z,88.10
2023-04-22T19:41:43.906Z,88.20
2023-04-22T19:44:12.785Z,88.10
2023-04-22T19:46:41.477Z,88.10
2023-04-22T19:49:12.005Z,88.10
2023-04-22T19:51:42.012Z,88.10
2023-04-22T19:54:12.780Z,88.10
2023-04-22T19:56:42.899Z,88.10
2023-04-22T19:59:11.236Z,88.10
2023-04-22T20:01:40.358Z,88.10
2023-04-22T20:04:10.933Z,88.10
2023-04-22T20:06:39.956Z,88.10
2023-04-22T20:09:10.412Z,88.10
2023-04-22T20:11:39.066Z,88.10
2023-04-22T20:14:09.975Z,88.10
2023-04-22T20:16:39.481Z,88.20
2023-04-22T20:19:08.136Z,88.00
2023-04-22T20:21:39.798Z,88.10
2023-04-22T20:24:12.188Z,88.10
2023-04-22T20:26:41.260Z,89.40
2023-04-22T20:29:09.940Z,88.10
2023-04-22T20:31:40.247Z,88.10
2023-04-22T20:34:09.362Z,88.00
2023-04-22T20:36:40.074Z,88.00
2023-04-22T20:39:12.471Z,88.00
2023-04-22T20:41:41.568Z,88.00
2023-04-22T20:44:14.162Z,88.00
2023-04-22T20:46:42.510Z,88.00
2023-04-22T20:49:11.881Z,88.10
2023-04-22T20:51:41.857Z,88.10
2023-04-22T20:54:21.629Z,88.00
2023-04-22T20:56:57.780Z,88.00
2023-04-22T20:59:29.292Z,88.20
2023-04-22T21:01:59.107Z,88.10
2023-04-22T21:04:28.027Z,88.00
2023-04-22T21:06:58.629Z,87.80
2023-04-22T21:09:27.282Z,88.00
2023-04-22T21:11:56.206Z,87.60
2023-04-22T21:14:28.009Z,87.70
2023-04-22T21:17:02.375Z,87.70
2023-04-22T21:19:34.221Z,87.70
2023-04-22T21:22:06.225Z,87.80
2023-04-22T21:24:35.981Z,87.60
2023-04-22T21:27:05.138Z,88.00
2023-04-22T21:29:35.265Z,87.70
2023-04-22T21:32:09.475Z,88.00
2023-04-22T21:34:39.227Z,87.90
2023-04-22T21:37:09.536Z,88.00
2023-04-22T21:39:38.596Z,87.90
2023-04-22T21:42:08.535Z,88.00
2023-04-22T21:44:39.249Z,88.10
2023-04-22T21:47:07.908Z,88.10
2023-04-22T21:49:36.710Z,88.00
2023-04-22T21:52:05.238Z,88.10
2023-04-22T21:54:35.120Z,88.00
2023-04-22T21:57:08.002Z,88.10
2023-04-22T21:59:36.768Z,88.00
2023-04-22T22:02:05.574Z,88.00
2023-04-22T22:04:35.114Z,88.00
2023-04-22T22:07:04.238Z,88.10
2023-04-22T22:09:34.225Z,88.00
2023-04-22T22:12:03.214Z,88.00
2023-04-22T22:14:31.542Z,88.00
2023-04-22T22:17:01.520Z,87.80
2023-04-22T22:19:31.752Z,87.90
2023-04-22T22:22:00.150Z,88.00
2023-04-22T22:24:28.613Z,88.00
2023-04-22T22:26:58.932Z,87.70
2023-04-22T22:29:27.529Z,87.80
2023-04-22T22:31:56.089Z,87.60
2023-04-22T22:34:24.860Z,87.60
2023-04-22T22:36:54.214Z,87.80
2023-04-22T22:39:22.581Z,87.70
2023-04-22T22:41:50.829Z,87.70
2023-04-22T22:44:20.926Z,87.60
2023-04-22T22:46:49.362Z,87.50
2023-04-22T22:49:17.732Z,87.50
2023-04-22T22:51:46.387Z,87.50
2023-04-22T22:54:14.704Z,87.40
2023-04-22T22:56:43.118Z,87.40
2023-04-22T22:59:11.735Z,87.30
2023-04-22T23:01:42.683Z,87.60
2023-04-22T23:04:11.230Z,87.50
2023-04-22T23:06:39.598Z,87.70
2023-04-22T23:09:09.195Z,88.00
2023-04-22T23:11:37.555Z,88.00
2023-04-22T23:14:12.532Z,87.90
2023-04-22T23:16:43.658Z,88.00
2023-04-22T23:19:13.346Z,88.10
2023-04-22T23:21:42.020Z,88.00
2023-04-22T23:24:11.603Z,88.00
2023-04-22T23:26:40.345Z,88.00
2023-04-22T23:29:09.769Z,88.00
2023-04-22T23:31:40.546Z,88.00
2023-04-22T23:34:10.993Z,88.00
2023-04-22T23:36:39.507Z,88.00
2023-04-22T23:39:09.716Z,88.00
2023-04-22T23:41:38.505Z,88.00
2023-04-22T23:44:07.428Z,87.90
2023-04-22T23:46:35.957Z,88.00
2023-04-22T23:49:04.398Z,87.90
2023-04-22T23:51:35.696Z,88.00
2023-04-22T23:54:04.176Z,88.00
2023-04-22T23:56:33.344Z,88.00
2023-04-22T23:59:02.198Z,87.90
